Time;durP1;ratioP1;P1;durP2;ratioP2;P2;SDS_P1;SDS_P2;PMS_P1;PMS_P2;Temp;Humidity;BMP_temperature;BMP_pressure;BME280_temperature;BME280_humidity;BME280_pressure;Samples;Min_cycle;Max_cycle;Signal;HPM_P1;HPM_P2
2023/09/05 00:00:26;;;;;;;8.07;6.05;;;;;15.70;101393.00;;;;10396429;28;20874;-82
2023/09/05 00:05:27;;;;;;;14.65;6.63;;;;;15.70;101377.00;;;;10416843;27;20208;-82
2023/09/05 00:10:28;;;;;;;8.48;6.47;;;;;15.70;101368.00;;;;10413066;27;20653;-81
2023/09/05 00:15:30;;;;;;;8.52;6.85;;;;;15.60;101365.00;;;;10395099;28;20273;-82
2023/09/05 00:20:31;;;;;;;7.22;6.53;;;;;15.60;101362.00;;;;10402383;27;20227;-81
2023/09/05 00:25:32;;;;;;;7.68;7.03;;;;;15.60;101350.00;;;;10393345;27;20308;-82
2023/09/05 00:30:34;;;;;;;9.45;7.40;;;;;15.60;101360.00;;;;10427397;27;20262;-82
2023/09/05 00:35:36;;;;;;;10.88;6.28;;;;;15.50;101361.00;;;;10380975;27;20643;-81
2023/09/05 00:40:37;;;;;;;6.82;6.07;;;;;15.40;101362.00;;;;10393504;27;20654;-81
2023/09/05 00:45:44;;;;;;;9.45;6.55;;;;;15.30;101367.00;;;;10393901;27;20205;-81
2023/09/05 00:50:46;;;;;;;7.97;7.05;;;;;15.30;101367.00;;;;10398405;27;20209;-82
2023/09/05 00:55:48;;;;;;;7.15;6.47;;;;;15.20;101365.00;;;;10426658;27;20661;-81
2023/09/05 01:00:49;;;;;;;11.45;7.10;;;;;15.20;101370.00;;;;10382438;27;20208;-80
2023/09/05 01:05:56;;;;;;;8.32;5.90;;;;;15.10;101371.00;;;;10465158;27;20189;-82
2023/09/05 01:11:08;;;;;;;7.70;6.63;;;;;15.10;101364.00;;;;10482950;27;20192;-84
2023/09/05 01:16:10;;;;;;;7.87;6.50;;;;;15.00;101361.00;;;;10427161;27;20358;-83
2023/09/05 01:21:35;;;;;;;8.80;6.72;;;;;15.00;101352.00;;;;10401184;27;20294;-82
2023/09/05 01:26:38;;;;;;;6.43;5.82;;;;;15.00;101363.00;;;;10442575;27;20224;-83
2023/09/05 01:31:39;;;;;;;9.38;6.78;;;;;14.90;101359.00;;;;10442628;27;20312;-82
2023/09/05 01:36:41;;;;;;;9.68;7.07;;;;;14.80;101360.00;;;;10451726;27;20454;-81
2023/09/05 01:41:42;;;;;;;7.32;6.57;;;;;14.80;101363.00;;;;10465173;27;20293;-81
2023/09/05 01:46:44;;;;;;;10.02;7.00;;;;;14.70;101367.00;;;;10425052;27;20211;-83
2023/09/05 01:51:45;;;;;;;6.70;6.00;;;;;14.70;101371.00;;;;10439862;27;22074;-82
2023/09/05 01:56:47;;;;;;;8.23;6.38;;;;;14.60;101359.00;;;;10443398;27;20220;-82
2023/09/05 02:01:49;;;;;;;9.55;6.65;;;;;14.60;101356.00;;;;10418670;27;20279;-82
2023/09/05 02:06:50;;;;;;;8.60;6.83;;;;;14.60;101350.00;;;;10441116;27;21566;-86
2023/09/05 02:11:51;;;;;;;6.57;5.97;;;;;14.50;101345.00;;;;10434553;27;20220;-82
2023/09/05 02:16:53;;;;;;;7.07;6.10;;;;;14.50;101346.00;;;;10408650;27;20231;-83
2023/09/05 02:21:55;;;;;;;9.35;7.45;;;;;14.50;101344.00;;;;10439223;27;20232;-80
2023/09/05 02:26:56;;;;;;;9.25;7.57;;;;;14.50;101339.00;;;;10440289;27;20209;-82
2023/09/05 02:31:58;;;;;;;11.07;7.43;;;;;14.50;101334.00;;;;10414393;27;20212;-82
2023/09/05 02:37:00;;;;;;;11.38;7.43;;;;;14.40;101345.00;;;;10420459;27;20742;-84
2023/09/05 02:42:03;;;;;;;8.77;7.55;;;;;14.40;101340.00;;;;10420252;27;20212;-83
2023/09/05 02:47:04;;;;;;;13.17;8.23;;;;;14.40;101351.00;;;;10434652;27;20204;-85
2023/09/05 02:52:06;;;;;;;8.80;7.28;;;;;14.40;101352.00;;;;10430717;27;20204;-82
2023/09/05 02:57:09;;;;;;;8.00;7.20;;;;;14.30;101351.00;;;;10416392;27;21283;-83
2023/09/05 03:02:10;;;;;;;10.25;7.32;;;;;14.20;101345.00;;;;10420928;27;20208;-81
2023/09/05 03:07:15;;;;;;;7.70;6.90;;;;;14.20;101344.00;;;;10424282;27;20553;-83
2023/09/05 03:12:17;;;;;;;10.95;7.10;;;;;14.10;101339.00;;;;10425804;27;20621;-82
2023/09/05 03:17:18;;;;;;;9.53;6.70;;;;;14.00;101341.00;;;;10439940;27;20229;-82
2023/09/05 03:22:20;;;;;;;9.37;7.00;;;;;14.00;101337.00;;;;10426755;27;20223;-84
2023/09/05 03:27:21;;;;;;;11.90;7.27;;;;;13.90;101344.00;;;;10430133;27;21191;-80
2023/09/05 03:32:23;;;;;;;7.55;6.80;;;;;13.90;101339.00;;;;10445251;27;20217;-83
2023/09/05 03:37:24;;;;;;;7.03;6.33;;;;;13.80;101335.00;;;;10417683;27;20227;-85
2023/09/05 03:42:26;;;;;;;11.23;7.90;;;;;13.80;101325.00;;;;10440016;27;20211;-80
2023/09/05 03:47:28;;;;;;;11.87;7.73;;;;;13.80;101323.00;;;;10439025;27;20232;-83
2023/09/05 03:52:29;;;;;;;9.60;7.80;;;;;13.80;101318.00;;;;10445788;27;20243;-80
2023/09/05 03:57:30;;;;;;;11.07;7.40;;;;;13.70;101319.00;;;;10464200;27;20806;-81
2023/09/05 04:02:32;;;;;;;9.80;7.07;;;;;13.70;101318.00;;;;10420111;27;20222;-81
2023/09/05 04:07:34;;;;;;;8.43;6.83;;;;;13.70;101320.00;;;;10441706;27;20692;-83
2023/09/05 04:12:37;;;;;;;14.13;7.30;;;;;13.60;101322.00;;;;10481500;27;20204;-80
2023/09/05 04:17:40;;;;;;;7.67;6.87;;;;;13.60;101313.00;;;;10491880;27;20213;-82
2023/09/05 04:22:41;;;;;;;8.37;7.00;;;;;13.50;101309.00;;;;10437483;27;21470;-83
2023/09/05 04:27:43;;;;;;;7.30;6.57;;;;;13.40;101317.00;;;;10458886;27;20207;-82
2023/09/05 04:32:44;;;;;;;7.97;6.50;;;;;13.30;101326.00;;;;10420565;27;20211;-82
2023/09/05 04:37:52;;;;;;;8.80;7.90;;;;;13.30;101323.00;;;;10427185;28;21706;-80
2023/09/05 04:42:54;;;;;;;10.67;8.13;;;;;13.40;101322.00;;;;10432514;27;20373;-82
2023/09/05 04:47:55;;;;;;;9.43;7.97;;;;;13.40;101320.00;;;;10430165;27;20209;-82
2023/09/05 04:52:57;;;;;;;9.20;7.80;;;;;13.50;101318.00;;;;10441898;27;20213;-83
2023/09/05 04:57:58;;;;;;;8.93;7.17;;;;;13.40;101312.00;;;;10432699;28;20228;-83
2023/09/05 05:03:00;;;;;;;9.13;7.47;;;;;13.40;101307.00;;;;10450663;27;20215;-81
2023/09/05 05:08:02;;;;;;;11.67;7.27;;;;;13.30;101323.00;;;;10432187;27;20212;-82
2023/09/05 05:13:03;;;;;;;9.20;7.67;;;;;13.30;101322.00;;;;10418243;27;20374;-81
2023/09/05 05:18:05;;;;;;;10.97;8.13;;;;;13.30;101319.00;;;;10420024;27;20211;-82
2023/09/05 05:23:09;;;;;;;14.33;8.90;;;;;13.40;101317.00;;;;10459944;27;20339;-83
2023/09/05 05:28:11;;;;;;;11.07;8.60;;;;;13.50;101325.00;;;;10416590;27;20650;-85
2023/09/05 05:33:12;;;;;;;11.97;9.03;;;;;13.70;101319.00;;;;10435954;28;20450;-85
2023/09/05 05:38:13;;;;;;;13.40;8.00;;;;;13.80;101326.00;;;;10419541;27;20642;-83
2023/09/05 05:43:15;;;;;;;10.37;8.30;;;;;14.00;101319.00;;;;10435329;27;21361;-82
2023/09/05 05:48:16;;;;;;;10.13;8.77;;;;;14.20;101314.00;;;;10434344;27;20291;-82
2023/09/05 05:53:20;;;;;;;10.57;8.60;;;;;14.50;101314.00;;;;10445851;28;20216;-84
2023/09/05 05:58:22;;;;;;;9.33;7.93;;;;;14.80;101313.00;;;;10423491;28;20289;-80
2023/09/05 06:03:23;;;;;;;10.73;8.67;;;;;15.00;101309.00;;;;10449071;27;20377;-83
2023/09/05 06:08:25;;;;;;;10.43;7.43;;;;;15.40;101303.00;;;;10451946;27;20211;-84
2023/09/05 06:13:27;;;;;;;9.90;7.45;;;;;15.80;101306.00;;;;10431418;27;20797;-83
2023/09/05 06:18:28;;;;;;;8.35;7.03;;;;;16.20;101307.00;;;;10436332;27;20294;-84
2023/09/05 06:23:30;;;;;;;12.18;6.60;;;;;16.70;101312.00;;;;10439068;27;21273;-84
2023/09/05 06:28:32;;;;;;;6.47;5.72;;;;;17.50;101306.00;;;;10417013;27;20200;-81
2023/09/05 06:33:34;;;;;;;10.88;4.93;;;;;18.10;101310.00;;;;10447002;27;20970;-84
2023/09/05 06:38:36;;;;;;;5.95;4.35;;;;;18.60;101298.00;;;;10445592;27;20207;-84
2023/09/05 06:43:37;;;;;;;4.03;3.60;;;;;18.80;101291.00;;;;10430145;27;20212;-82
2023/09/05 06:48:39;;;;;;;6.25;3.75;;;;;19.20;101294.00;;;;10414951;27;20976;-86
2023/09/05 06:53:41;;;;;;;15.68;4.70;;;;;19.60;101293.00;;;;10448020;28;21309;-84
2023/09/05 06:58:43;;;;;;;5.43;3.85;;;;;20.00;101292.00;;;;10412125;27;20536;-81
2023/09/05 07:03:44;;;;;;;5.90;4.03;;;;;20.00;101281.00;;;;10413160;27;20212;-83
2023/09/05 07:08:46;;;;;;;5.32;3.70;;;;;20.20;101284.00;;;;10426704;28;21091;-83
2023/09/05 07:13:51;;;;;;;6.40;3.80;;;;;20.50;101285.00;;;;10431996;27;20434;-80
2023/09/05 07:18:53;;;;;;;6.25;3.22;;;;;20.70;101278.00;;;;10497258;27;20200;-80
2023/09/05 07:23:54;;;;;;;4.78;3.00;;;;;21.10;101278.00;;;;10447320;27;21297;-83
2023/09/05 07:28:55;;;;;;;5.35;3.45;;;;;21.30;101262.00;;;;10426056;27;20192;-84
2023/09/05 07:34:00;;;;;;;5.38;3.13;;;;;21.50;101259.00;;;;10409852;27;20224;-82
2023/09/05 07:39:04;;;;;;;4.55;3.50;;;;;21.60;101253.00;;;;10432018;27;20204;-81
2023/09/05 07:44:06;;;;;;;5.13;3.08;;;;;21.90;101253.00;;;;10415715;27;20258;-81
2023/09/05 07:49:07;;;;;;;4.47;3.28;;;;;22.20;101248.00;;;;10429603;27;20769;-82
2023/09/05 07:54:14;;;;;;;9.90;3.17;;;;;22.50;101259.00;;;;10427990;27;20219;-82
2023/09/05 07:59:16;;;;;;;5.22;2.80;;;;;22.90;101257.00;;;;10418853;27;20215;-81
2023/09/05 08:04:17;;;;;;;4.30;2.45;;;;;23.40;101257.00;;;;10410200;27;20232;-83
2023/09/05 08:09:18;;;;;;;4.15;2.85;;;;;23.70;101259.00;;;;10436047;27;21695;-84
2023/09/05 08:14:20;;;;;;;4.25;2.60;;;;;24.00;101251.00;;;;10408222;27;20545;-80
2023/09/05 08:19:21;;;;;;;4.13;2.88;;;;;24.40;101253.00;;;;10458331;27;20230;-83
2023/09/05 08:24:23;;;;;;;2.75;2.33;;;;;24.70;101261.00;;;;10424495;27;20228;-83
2023/09/05 08:29:26;;;;;;;2.67;2.22;;;;;25.20;101268.00;;;;10421429;27;20338;-84
2023/09/05 08:34:28;;;;;;;2.58;2.30;;;;;25.90;101288.00;;;;10423240;27;20339;-83
2023/09/05 08:39:29;;;;;;;3.65;2.08;;;;;26.50;101287.00;;;;10407108;27;20715;-84
2023/09/05 08:44:31;;;;;;;2.42;1.90;;;;;27.10;101292.00;;;;10425869;27;20203;-84
2023/09/05 08:49:32;;;;;;;2.15;1.95;;;;;27.50;101282.00;;;;10449793;27;20680;-84
2023/09/05 08:54:34;;;;;;;3.17;2.10;;;;;27.90;101283.00;;;;10416101;27;20806;-81
2023/09/05 08:59:35;;;;;;;5.07;2.08;;;;;28.30;101278.00;;;;10442373;27;20215;-84
2023/09/05 09:04:58;;;;;;;4.47;1.80;;;;;28.70;101288.00;;;;10441646;27;20846;-83
2023/09/05 09:10:14;;;;;;;4.53;2.40;;;;;28.90;101286.00;;;;10454700;27;20289;-84
2023/09/05 09:15:16;;;;;;;3.55;2.30;;;;;29.30;101278.00;;;;10445199;27;20400;-82
2023/09/05 09:20:19;;;;;;;2.22;1.90;;;;;29.50;101289.00;;;;10461706;27;20249;-85
2023/09/05 09:25:21;;;;;;;2.03;1.88;;;;;29.70;101283.00;;;;10482462;27;20192;-82
2023/09/05 09:30:24;;;;;;;3.05;1.63;;;;;29.70;101281.00;;;;10488206;27;20204;-81
2023/09/05 09:35:26;;;;;;;4.75;1.80;;;;;29.90;101283.00;;;;10453329;27;20216;-82
2023/09/05 09:40:36;;;;;;;2.78;1.90;;;;;30.30;101276.00;;;;10464730;27;21151;-87
2023/09/05 09:45:37;;;;;;;2.13;1.92;;;;;30.50;101275.00;;;;10462342;27;20222;-85
2023/09/05 09:50:39;;;;;;;5.07;2.20;;;;;30.70;101275.00;;;;10460128;27;20204;-86
2023/09/05 09:55:43;;;;;;;1.73;1.63;;;;;30.90;101276.00;;;;10469382;27;20298;-83
2023/09/05 10:00:45;;;;;;;2.40;2.13;;;;;31.00;101281.00;;;;10484224;27;21068;-82
2023/09/05 10:05:47;;;;;;;3.08;2.05;;;;;31.00;101288.00;;;;10477106;28;20409;-83
2023/09/05 10:10:51;;;;;;;4.10;2.20;;;;;31.10;101279.00;;;;10470481;27;20295;-83
2023/09/05 10:15:56;;;;;;;4.97;2.25;;;;;31.30;101278.00;;;;10461174;27;20192;-85
2023/09/05 10:21:00;;;;;;;5.10;1.88;;;;;31.40;101273.00;;;;10464546;27;20202;-82
2023/09/05 10:26:03;;;;;;;3.03;2.00;;;;;31.70;101269.00;;;;10477825;27;20213;-83
2023/09/05 10:31:15;;;;;;;2.60;2.00;;;;;32.00;101262.00;;;;10447511;27;20934;-82
2023/09/05 10:36:42;;;;;;;2.83;1.90;;;;;32.10;101260.00;;;;10443964;27;20244;-82
2023/09/05 10:41:43;;;;;;;3.03;1.75;;;;;32.30;101251.00;;;;10543352;22;20941;-84
2023/09/05 10:46:51;;;;;;;5.68;2.28;;;;;32.70;101241.00;;;;10599790;22;20460;-83
2023/09/05 10:52:15;;;;;;;5.10;2.22;;;;;32.90;101249.00;;;;10442982;28;20205;-82
2023/09/05 10:57:34;;;;;;;4.43;2.00;;;;;33.00;101251.00;;;;10434019;28;20228;-83
2023/09/05 11:02:37;;;;;;;6.55;2.15;;;;;33.30;101248.00;;;;10396327;28;21275;-82
2023/09/05 11:07:42;;;;;;;2.47;1.80;;;;;33.50;101244.00;;;;10468427;27;20739;-85
2023/09/05 11:12:44;;;;;;;7.68;2.35;;;;;33.60;101243.00;;;;10418897;28;21351;-83
2023/09/05 11:17:58;;;;;;;3.25;2.38;;;;;33.80;101247.00;;;;10434156;28;20263;-83
2023/09/05 11:23:16;;;;;;;4.10;2.17;;;;;33.90;101236.00;;;;10446011;28;20197;-82
2023/09/05 11:28:18;;;;;;;4.72;2.03;;;;;33.90;101238.00;;;;10553549;22;21402;-84
2023/09/05 11:33:19;;;;;;;3.42;2.10;;;;;34.00;101236.00;;;;10392378;28;20205;-84
2023/09/05 11:38:23;;;;;;;3.22;2.40;;;;;34.30;101229.00;;;;10418994;28;20185;-82
2023/09/05 11:43:24;;;;;;;4.72;2.08;;;;;34.10;101234.00;;;;10436456;28;20220;-83
2023/09/05 11:48:30;;;;;;;2.88;2.20;;;;;34.20;101216.00;;;;10412460;28;20221;-84
2023/09/05 11:53:32;;;;;;;2.20;1.83;;;;;34.00;101218.00;;;;10414166;28;20201;-83
2023/09/05 11:58:34;;;;;;;5.28;2.00;;;;;33.80;101213.00;;;;10405435;28;20292;-85
2023/09/05 12:03:36;;;;;;;3.10;2.10;;;;;33.80;101214.00;;;;10439460;28;20225;-82
2023/09/05 12:08:39;;;;;;;3.25;2.22;;;;;34.00;101209.00;;;;10391071;28;20238;-82
2023/09/05 12:13:45;;;;;;;4.68;2.30;;;;;34.10;101198.00;;;;10412345;28;20212;-83
2023/09/05 12:18:47;;;;;;;4.32;2.30;;;;;34.10;101211.00;;;;10432570;28;20465;-83
2023/09/05 12:23:48;;;;;;;4.78;2.60;;;;;34.20;101208.00;;;;10436346;28;20217;-84
2023/09/05 12:28:58;;;;;;;3.03;2.17;;;;;34.30;101191.00;;;;10419608;28;21628;-83
2023/09/05 12:33:59;;;;;;;2.75;2.30;;;;;34.30;101194.00;;;;10433520;28;20215;-83
2023/09/05 12:39:00;;;;;;;3.70;2.10;;;;;34.40;101190.00;;;;10415833;28;20221;-84
2023/09/05 12:44:02;;;;;;;4.03;2.00;;;;;34.60;101195.00;;;;10422609;28;20280;-85
2023/09/05 12:49:04;;;;;;;4.13;2.05;;;;;34.60;101192.00;;;;10435739;28;20217;-82
2023/09/05 12:54:05;;;;;;;4.93;1.85;;;;;34.70;101187.00;;;;10389225;28;20215;-85
2023/09/05 12:59:07;;;;;;;2.63;2.22;;;;;34.60;101189.00;;;;10444412;28;20212;-83
2023/09/05 13:04:10;;;;;;;3.00;1.98;;;;;34.30;101190.00;;;;10398891;28;20776;-84
2023/09/05 13:09:12;;;;;;;5.63;2.13;;;;;34.20;101182.00;;;;10428226;28;20213;-86
2023/09/05 13:14:13;;;;;;;5.18;1.95;;;;;34.10;101185.00;;;;10471521;27;20208;-83
2023/09/05 13:19:14;;;;;;;3.67;2.03;;;;;34.00;101177.00;;;;10458169;28;20184;-82
2023/09/05 13:24:16;;;;;;;4.10;1.98;;;;;34.00;101183.00;;;;10457595;28;20643;-83
2023/09/05 13:29:18;;;;;;;2.30;2.10;;;;;33.90;101175.00;;;;10431141;28;20196;-85
2023/09/05 13:34:19;;;;;;;3.42;2.00;;;;;33.80;101165.00;;;;10439096;28;20208;-86
2023/09/05 13:39:20;;;;;;;2.60;1.70;;;;;33.60;101164.00;;;;10443344;28;20211;-85
2023/09/05 13:44:22;;;;;;;3.35;2.05;;;;;33.40;101161.00;;;;10423896;28;20227;-85
2023/09/05 13:49:23;;;;;;;2.17;1.73;;;;;33.20;101158.00;;;;10418807;27;20227;-84
2023/09/05 13:54:25;;;;;;;2.40;2.20;;;;;33.20;101151.00;;;;10445798;28;20216;-86
2023/09/05 13:59:27;;;;;;;3.97;2.17;;;;;33.30;101146.00;;;;10403270;28;20196;-84
2023/09/05 14:04:28;;;;;;;2.53;2.05;;;;;33.20;101138.00;;;;10419250;28;20225;-85
2023/09/05 14:09:29;;;;;;;3.72;1.83;;;;;33.10;101138.00;;;;10420906;28;20205;-86
2023/09/05 14:14:31;;;;;;;5.00;2.08;;;;;33.00;101134.00;;;;10443963;28;21457;-86
2023/09/05 14:19:33;;;;;;;2.00;1.90;;;;;33.10;101131.00;;;;10414294;28;20211;-84
2023/09/05 14:24:35;;;;;;;3.58;1.98;;;;;33.10;101129.00;;;;10412178;28;20224;-86
2023/09/05 14:29:37;;;;;;;3.45;2.20;;;;;32.60;101130.00;;;;10438094;28;20199;-84
2023/09/05 14:34:38;;;;;;;3.00;2.30;;;;;32.20;101117.00;;;;10418440;28;20200;-84
2023/09/05 14:39:40;;;;;;;4.35;2.15;;;;;32.00;101122.00;;;;10405327;28;20304;-85
2023/09/05 14:44:41;;;;;;;3.45;2.30;;;;;31.70;101101.00;;;;10404016;28;20388;-83
2023/09/05 14:49:45;;;;;;;4.55;2.22;;;;;31.40;101118.00;;;;10410136;28;20200;-85
2023/09/05 14:54:49;;;;;;;4.38;2.40;;;;;31.20;101118.00;;;;10410778;28;20236;-85
2023/09/05 14:59:50;;;;;;;5.15;2.10;;;;;31.10;101113.00;;;;10388642;28;20200;-85
2023/09/05 15:04:51;;;;;;;2.58;2.10;;;;;30.90;101110.00;;;;10421945;28;20223;-85
2023/09/05 15:09:53;;;;;;;2.50;2.03;;;;;30.90;101106.00;;;;10419160;28;20223;-83
2023/09/05 15:14:54;;;;;;;4.68;2.40;;;;;30.80;101099.00;;;;10419953;28;20327;-84
2023/09/05 15:19:56;;;;;;;2.58;2.03;;;;;30.60;101100.00;;;;10416160;28;20589;-85
2023/09/05 15:24:57;;;;;;;2.85;2.05;;;;;30.50;101095.00;;;;10415349;28;20327;-84
2023/09/05 15:29:58;;;;;;;2.83;1.95;;;;;30.40;101094.00;;;;10416143;28;20882;-84
2023/09/05 15:34:59;;;;;;;4.03;2.50;;;;;30.30;101105.00;;;;10413921;28;20891;-83
2023/09/05 15:40:02;;;;;;;2.28;1.88;;;;;30.20;101103.00;;;;10399016;28;21006;-83
2023/09/05 15:45:08;;;;;;;4.13;2.10;;;;;30.00;101096.00;;;;10397686;28;21406;-85
2023/09/05 15:50:10;;;;;;;6.57;2.30;;;;;29.90;101099.00;;;;10419761;28;20937;-84
2023/09/05 15:55:12;;;;;;;3.00;1.92;;;;;29.80;101100.00;;;;10406492;28;20220;-84
2023/09/05 16:00:14;;;;;;;4.50;2.17;;;;;29.70;101092.00;;;;10419714;28;20899;-85
2023/09/05 16:05:17;;;;;;;4.15;1.98;;;;;29.60;101106.00;;;;10433947;28;20835;-82
2023/09/05 16:10:21;;;;;;;2.30;2.08;;;;;29.50;101110.00;;;;10405549;28;20302;-83
2023/09/05 16:15:22;;;;;;;2.30;1.95;;;;;29.40;101120.00;;;;10397094;28;20201;-84
2023/09/05 16:20:24;;;;;;;3.67;2.40;;;;;29.30;101117.00;;;;10417478;28;20210;-84
2023/09/05 16:25:25;;;;;;;2.75;2.30;;;;;29.30;101117.00;;;;10410224;28;21342;-83
2023/09/05 16:30:27;;;;;;;3.08;2.20;;;;;29.10;101119.00;;;;10414161;28;20585;-83
2023/09/05 16:35:30;;;;;;;4.90;1.92;;;;;29.10;101121.00;;;;10412205;28;20214;-82
2023/09/05 16:40:31;;;;;;;5.38;2.40;;;;;28.90;101120.00;;;;10414488;28;21125;-85
2023/09/05 16:45:32;;;;;;;3.70;2.08;;;;;28.80;101126.00;;;;10400304;28;20695;-84
2023/09/05 16:50:34;;;;;;;4.97;2.42;;;;;28.70;101119.00;;;;10400315;28;20270;-85
2023/09/05 16:55:39;;;;;;;3.47;2.20;;;;;28.60;101128.00;;;;10401111;28;20277;-84
2023/09/05 17:00:45;;;;;;;6.85;2.40;;;;;28.50;101131.00;;;;10419289;28;20211;-84
2023/09/05 17:05:48;;;;;;;4.22;2.20;;;;;28.40;101131.00;;;;10397936;28;20227;-84
2023/09/05 17:10:49;;;;;;;3.92;1.88;;;;;28.30;101136.00;;;;10470416;28;20248;-84
2023/09/05 17:15:51;;;;;;;2.28;1.70;;;;;28.10;101137.00;;;;10497789;28;20228;-84
2023/09/05 17:20:53;;;;;;;5.90;2.38;;;;;28.00;101135.00;;;;10486497;28;20780;-84
2023/09/05 17:25:55;;;;;;;7.75;1.98;;;;;27.80;101145.00;;;;10492840;28;20635;-85
2023/09/05 17:30:57;;;;;;;3.25;2.17;;;;;27.70;101139.00;;;;10468434;28;20216;-85
2023/09/05 17:35:58;;;;;;;6.05;2.10;;;;;27.50;101148.00;;;;10496800;28;20193;-85
2023/09/05 17:41:00;;;;;;;2.75;1.98;;;;;27.30;101149.00;;;;10499832;28;20397;-85
2023/09/05 17:46:05;;;;;;;3.65;2.17;;;;;27.10;101149.00;;;;10466212;28;20299;-86
2023/09/05 17:51:11;;;;;;;2.95;1.65;;;;;26.90;101150.00;;;;10494594;28;20654;-85
2023/09/05 17:56:14;;;;;;;5.03;2.22;;;;;26.70;101158.00;;;;10505358;28;20231;-84
2023/09/05 18:01:17;;;;;;;4.85;2.10;;;;;26.50;101158.00;;;;10482269;28;20233;-84
2023/09/05 18:06:18;;;;;;;2.97;2.08;;;;;26.20;101158.00;;;;10502968;28;20219;-85
2023/09/05 18:11:19;;;;;;;2.33;1.90;;;;;26.10;101162.00;;;;10458383;28;20308;-84
2023/09/05 18:16:21;;;;;;;5.88;1.77;;;;;25.90;101168.00;;;;10490169;28;20284;-85
2023/09/05 18:21:22;;;;;;;5.97;2.08;;;;;25.70;101165.00;;;;10499690;28;20196;-86
2023/09/05 18:26:24;;;;;;;7.72;1.95;;;;;25.60;101168.00;;;;10496335;28;20277;-87
2023/09/05 18:31:25;;;;;;;4.85;2.38;;;;;25.40;101175.00;;;;10484358;28;20563;-85
2023/09/05 18:36:26;;;;;;;5.30;2.40;;;;;25.30;101181.00;;;;10504432;28;20220;-87
2023/09/05 18:41:28;;;;;;;6.43;2.60;;;;;25.00;101195.00;;;;10485625;28;20212;-86
2023/09/05 18:46:29;;;;;;;6.22;2.90;;;;;24.70;101200.00;;;;10466190;28;20225;-85
2023/09/05 18:51:35;;;;;;;4.20;2.40;;;;;24.40;101211.00;;;;10520506;28;20323;-84
2023/09/05 18:56:36;;;;;;;3.55;2.70;;;;;24.20;101208.00;;;;10510025;28;20254;-83
2023/09/05 19:01:38;;;;;;;7.70;2.72;;;;;24.10;101211.00;;;;10522052;28;20212;-85
2023/09/05 19:06:39;;;;;;;4.85;2.85;;;;;23.90;101207.00;;;;10516502;28;20269;-85
2023/09/05 19:11:43;;;;;;;3.45;3.08;;;;;23.70;101215.00;;;;10495714;28;20547;-84
2023/09/05 19:16:45;;;;;;;2.88;2.42;;;;;23.60;101219.00;;;;10462351;28;20292;-83
2023/09/05 19:21:46;;;;;;;7.30;2.83;;;;;23.60;101228.00;;;;10493644;28;20201;-82
2023/09/05 19:26:49;;;;;;;5.63;2.65;;;;;23.60;101227.00;;;;10487609;28;20213;-84
2023/09/05 19:31:51;;;;;;;5.55;3.08;;;;;23.50;101233.00;;;;10494589;28;20781;-85
2023/09/05 19:36:53;;;;;;;4.05;2.72;;;;;23.50;101229.00;;;;10484963;28;20283;-84
2023/09/05 19:41:56;;;;;;;4.25;2.83;;;;;23.20;101235.00;;;;10515082;28;20279;-83
2023/09/05 19:46:58;;;;;;;6.60;3.38;;;;;23.00;101242.00;;;;10450444;28;20247;-84
2023/09/05 19:52:01;;;;;;;11.07;3.50;;;;;22.90;101230.00;;;;10491790;28;20288;-84
2023/09/05 19:57:03;;;;;;;6.47;3.13;;;;;22.90;101234.00;;;;10475683;28;20204;-84
2023/09/05 20:02:05;;;;;;;5.00;3.40;;;;;22.80;101233.00;;;;10488235;28;20620;-82
2023/09/05 20:07:08;;;;;;;10.63;3.70;;;;;22.50;101237.00;;;;10476358;28;20258;-83
2023/09/05 20:12:09;;;;;;;5.20;3.63;;;;;22.40;101233.00;;;;10491506;28;20279;-84
2023/09/05 20:17:10;;;;;;;7.13;3.75;;;;;22.50;101233.00;;;;10445579;28;20222;-84
2023/09/05 20:22:13;;;;;;;11.13;4.18;;;;;22.50;101237.00;;;;10469565;28;20395;-83
2023/09/05 20:27:15;;;;;;;11.35;4.32;;;;;22.40;101227.00;;;;10492979;28;20677;-83
2023/09/05 20:32:16;;;;;;;7.47;4.05;;;;;22.20;101242.00;;;;10474431;28;20766;-82
2023/09/05 20:37:18;;;;;;;7.63;4.03;;;;;22.20;101241.00;;;;10492911;28;20193;-83
2023/09/05 20:42:19;;;;;;;4.50;3.67;;;;;22.10;101241.00;;;;10499891;28;20886;-84
2023/09/05 20:47:20;;;;;;;6.85;4.03;;;;;22.00;101246.00;;;;10478385;28;20223;-85
2023/09/05 20:52:22;;;;;;;5.18;4.22;;;;;22.00;101250.00;;;;10495456;28;20246;-83
2023/09/05 20:57:24;;;;;;;7.35;3.53;;;;;21.80;101250.00;;;;10472258;28;20235;-85
2023/09/05 21:02:26;;;;;;;7.68;4.20;;;;;21.70;101245.00;;;;10500717;28;20558;-84
2023/09/05 21:07:30;;;;;;;5.82;4.00;;;;;21.60;101257.00;;;;10504524;28;20629;-84
2023/09/05 21:12:32;;;;;;;4.55;3.78;;;;;21.60;101259.00;;;;10483551;28;20570;-84
2023/09/05 21:17:33;;;;;;;7.47;3.90;;;;;21.60;101258.00;;;;10478248;28;20253;-83
2023/09/05 21:22:34;;;;;;;4.85;4.30;;;;;21.60;101259.00;;;;10501496;28;21358;-83
2023/09/05 21:27:36;;;;;;;6.60;4.43;;;;;21.50;101256.00;;;;10517349;28;20244;-83
2023/09/05 21:32:38;;;;;;;4.28;3.85;;;;;21.30;101251.00;;;;10464414;28;20653;-83
2023/09/05 21:37:39;;;;;;;7.60;4.07;;;;;21.10;101255.00;;;;10506692;28;20273;-82
2023/09/05 21:42:41;;;;;;;5.25;4.63;;;;;21.00;101253.00;;;;10480713;28;20201;-82
2023/09/05 21:47:43;;;;;;;10.57;4.10;;;;;20.80;101253.00;;;;10486949;28;20220;-83
2023/09/05 21:52:45;;;;;;;5.60;3.95;;;;;20.80;101258.00;;;;10503151;28;20209;-84
2023/09/05 21:57:46;;;;;;;8.75;4.28;;;;;20.70;101253.00;;;;10469520;28;20200;-83
2023/09/05 22:02:47;;;;;;;7.20;3.80;;;;;20.60;101258.00;;;;10481517;28;20197;-84
2023/09/05 22:07:49;;;;;;;8.02;4.80;;;;;20.50;101262.00;;;;10493364;28;20221;-84
2023/09/05 22:12:52;;;;;;;6.65;4.63;;;;;20.40;101265.00;;;;10509024;28;20209;-84
2023/09/05 22:17:53;;;;;;;7.43;4.38;;;;;20.40;101274.00;;;;10503603;28;20197;-84
2023/09/05 22:22:55;;;;;;;7.03;5.13;;;;;20.30;101272.00;;;;10521048;28;20248;-83
2023/09/05 22:27:56;;;;;;;8.82;4.80;;;;;20.30;101278.00;;;;10496125;28;20220;-83
2023/09/05 22:32:58;;;;;;;10.20;4.60;;;;;20.20;101277.00;;;;10454075;28;20292;-83
2023/09/05 22:37:59;;;;;;;7.97;5.05;;;;;20.10;101280.00;;;;10526803;28;20326;-84
2023/09/05 22:43:06;;;;;;;7.13;4.95;;;;;20.00;101284.00;;;;10507499;28;20266;-82
2023/09/05 22:48:08;;;;;;;6.93;5.28;;;;;19.90;101291.00;;;;10501792;28;20216;-84
2023/09/05 22:53:09;;;;;;;6.18;4.90;;;;;19.80;101293.00;;;;10489906;28;20219;-83
2023/09/05 22:58:10;;;;;;;4.82;3.75;;;;;19.80;101294.00;;;;10488358;28;20227;-84
2023/09/05 23:03:12;;;;;;;5.05;4.20;;;;;19.90;101300.00;;;;10491418;28;20593;-83
2023/09/05 23:08:13;;;;;;;5.93;3.83;;;;;20.00;101289.00;;;;10484645;28;20231;-83
2023/09/05 23:13:15;;;;;;;4.32;3.75;;;;;20.00;101294.00;;;;10497606;28;20204;-84
2023/09/05 23:18:16;;;;;;;6.63;3.40;;;;;19.90;101289.00;;;;10489186;28;20200;-83
2023/09/05 23:23:20;;;;;;;5.93;3.30;;;;;19.90;101296.00;;;;10460740;28;20205;-84
2023/09/05 23:28:21;;;;;;;6.38;3.80;;;;;19.70;101295.00;;;;10474422;28;20216;-82
2023/09/05 23:33:23;;;;;;;6.82;4.40;;;;;19.50;101299.00;;;;10514113;28;20230;-83
2023/09/05 23:38:24;;;;;;;7.18;4.35;;;;;19.30;101297.00;;;;10502305;28;20207;-83
2023/09/05 23:43:27;;;;;;;7.60;4.43;;;;;19.20;101300.00;;;;10470245;27;20197;-82
2023/09/05 23:48:31;;;;;;;7.57;4.63;;;;;19.10;101301.00;;;;10462646;28;20272;-83
2023/09/05 23:53:33;;;;;;;8.10;4.72;;;;;19.00;101310.00;;;;10496498;28;20423;-83
2023/09/05 23:58:35;;;;;;;5.32;4.20;;;;;18.90;101300.00;;;;10483795;28;20245;-83
